createdAt,value
2022-12-05T00:03:16.817Z,15.80
2022-12-05T00:08:18.815Z,15.70
2022-12-05T00:13:20.499Z,15.70
2022-12-05T00:18:22.273Z,15.70
2022-12-05T00:23:23.986Z,15.60
2022-12-05T00:28:25.752Z,15.60
2022-12-05T00:33:27.381Z,15.60
2022-12-05T00:38:29.450Z,15.60
2022-12-05T00:43:31.508Z,15.60
2022-12-05T00:48:33.202Z,15.70
2022-12-05T00:53:35.013Z,15.80
2022-12-05T00:58:36.822Z,15.80
2022-12-05T01:03:38.966Z,15.80
2022-12-05T01:08:40.998Z,15.80
2022-12-05T01:13:42.851Z,15.80
2022-12-05T01:18:44.615Z,15.80
2022-12-05T01:23:46.744Z,15.70
2022-12-05T01:28:48.950Z,15.70
2022-12-05T01:33:51.104Z,15.70
2022-12-05T01:38:53.067Z,15.70
2022-12-05T01:44:02.394Z,15.60
2022-12-05T01:49:07.489Z,15.60
2022-12-05T01:54:10.265Z,15.60
2022-12-05T01:59:12.895Z,15.50
2022-12-05T02:04:14.660Z,15.50
2022-12-05T02:09:16.432Z,15.50
2022-12-05T02:14:24.693Z,15.50
2022-12-05T02:19:45.418Z,15.40
2022-12-05T02:24:55.499Z,15.40
2022-12-05T02:30:15.163Z,15.50
2022-12-05T02:35:22.737Z,15.60
2022-12-05T02:40:26.641Z,15.60
2022-12-05T02:45:30.006Z,15.70
2022-12-05T02:50:34.676Z,15.70
2022-12-05T02:55:36.919Z,15.70
2022-12-05T03:00:39.903Z,15.70
2022-12-05T03:05:44.877Z,15.70
2022-12-05T03:10:47.939Z,15.60
2022-12-05T03:15:52.554Z,15.60
2022-12-05T03:20:57.987Z,15.60
2022-12-05T03:26:03.883Z,15.60
2022-12-05T03:31:11.285Z,15.50
2022-12-05T03:36:18.802Z,15.60
2022-12-05T03:41:26.556Z,15.50
2022-12-05T03:46:37.685Z,15.50
2022-12-05T03:51:43.442Z,15.40
2022-12-05T03:56:47.561Z,15.40
2022-12-05T04:01:50.880Z,15.40
2022-12-05T04:06:53.649Z,15.30
2022-12-05T04:11:57.992Z,15.30
2022-12-05T04:17:20.085Z,15.40
2022-12-05T04:22:22.664Z,15.40
2022-12-05T04:27:48.833Z,15.50
2022-12-05T04:32:50.489Z,15.50
2022-12-05T04:37:55.799Z,15.50
2022-12-05T04:42:58.312Z,15.60
2022-12-05T04:48:01.541Z,15.50
2022-12-05T04:53:03.988Z,15.50
2022-12-05T04:58:13.244Z,15.50
2022-12-05T05:03:34.427Z,15.50
2022-12-05T05:08:36.346Z,15.50
2022-12-05T05:13:37.963Z,15.40
2022-12-05T05:18:39.595Z,15.40
2022-12-05T05:23:41.468Z,15.40
2022-12-05T05:28:43.258Z,15.30
2022-12-05T05:33:48.603Z,15.30
2022-12-05T05:38:51.459Z,15.30
2022-12-05T05:43:53.760Z,15.30
2022-12-05T05:48:55.554Z,15.40
2022-12-05T05:53:57.927Z,15.50
2022-12-05T05:59:00.795Z,15.70
2022-12-05T06:04:02.641Z,16.00
2022-12-05T06:09:06.350Z,16.20
2022-12-05T06:14:08.438Z,16.30
2022-12-05T06:19:10.000Z,16.30
2022-12-05T06:24:11.643Z,16.40
2022-12-05T06:29:13.190Z,16.30
2022-12-05T06:34:14.815Z,16.30
2022-12-05T06:39:16.529Z,16.20
2022-12-05T06:44:18.498Z,16.20
2022-12-05T06:49:20.297Z,16.20
2022-12-05T06:54:22.072Z,16.30
2022-12-05T06:59:23.729Z,16.30
2022-12-05T07:04:25.488Z,16.20
2022-12-05T07:09:45.908Z,16.10
2022-12-05T07:14:49.411Z,16.10
2022-12-05T07:19:52.417Z,16.10
2022-12-05T07:24:54.141Z,16.00
2022-12-05T07:29:56.449Z,16.00
2022-12-05T07:34:58.484Z,15.90
2022-12-05T07:40:00.543Z,15.90
2022-12-05T07:45:02.650Z,15.80
2022-12-05T07:50:04.733Z,15.70
2022-12-05T07:55:06.638Z,15.70
2022-12-05T08:00:08.389Z,15.70
2022-12-05T08:05:10.077Z,15.60
2022-12-05T08:10:11.746Z,15.60
2022-12-05T08:15:13.373Z,15.60
2022-12-05T08:20:15.058Z,15.60
2022-12-05T08:25:16.821Z,15.50
2022-12-05T08:30:18.870Z,15.50
2022-12-05T08:35:20.674Z,15.40
2022-12-05T08:40:22.451Z,15.40
2022-12-05T08:45:24.148Z,15.40
2022-12-05T08:50:25.955Z,15.40
2022-12-05T08:55:28.258Z,15.30
2022-12-05T09:00:30.053Z,15.30
2022-12-05T09:05:32.152Z,15.40
2022-12-05T09:10:34.097Z,15.50
2022-12-05T09:15:38.620Z,15.50
2022-12-05T09:20:40.324Z,15.50
2022-12-05T09:25:41.991Z,15.50
2022-12-05T09:30:43.915Z,15.50
2022-12-05T09:35:45.592Z,15.50
2022-12-05T09:40:49.866Z,15.50
2022-12-05T09:45:59.758Z,15.40
2022-12-05T09:51:02.956Z,15.40
2022-12-05T09:56:23.174Z,15.40
2022-12-05T10:01:31.145Z,15.40
2022-12-05T10:06:35.988Z,15.30
2022-12-05T10:11:42.159Z,15.30
2022-12-05T10:16:49.016Z,15.30
2022-12-05T10:21:58.977Z,15.30
2022-12-05T10:27:04.197Z,15.30
2022-12-05T10:32:26.190Z,15.20
2022-12-05T10:37:30.763Z,15.30
2022-12-05T10:42:34.713Z,15.30
2022-12-05T10:47:36.431Z,15.30
2022-12-05T10:52:38.099Z,15.30
2022-12-05T10:57:39.803Z,15.30
2022-12-05T11:02:42.811Z,15.30
2022-12-05T11:07:44.592Z,15.30
2022-12-05T11:12:46.315Z,15.30
2022-12-05T11:17:48.834Z,15.30
2022-12-05T11:22:51.566Z,15.20
2022-12-05T11:27:55.936Z,15.20
2022-12-05T11:33:19.404Z,15.20
2022-12-05T11:38:28.245Z,15.20
2022-12-05T11:43:44.768Z,15.20
2022-12-05T11:48:46.503Z,15.10
2022-12-05T11:54:09.370Z,15.20
2022-12-05T11:59:29.548Z,15.20
2022-12-05T12:04:38.009Z,15.40
2022-12-05T12:09:58.207Z,15.50
2022-12-05T12:15:00.231Z,15.60
2022-12-05T12:20:26.881Z,15.60
2022-12-05T12:25:54.794Z,15.60
2022-12-05T12:31:08.657Z,15.60
2022-12-05T12:36:26.002Z,15.60
2022-12-05T12:41:30.669Z,15.50
2022-12-05T12:46:38.478Z,15.50
2022-12-05T12:51:44.836Z,15.40
2022-12-05T12:56:52.805Z,15.40
2022-12-05T13:01:58.236Z,15.40
2022-12-05T13:07:03.148Z,15.30
2022-12-05T13:12:07.746Z,15.30
2022-12-05T13:17:15.497Z,15.30
2022-12-05T13:22:19.006Z,15.20
2022-12-05T13:27:25.101Z,15.20
2022-12-05T13:32:34.838Z,15.20
2022-12-05T13:37:55.876Z,15.20
2022-12-05T13:43:02.207Z,15.20
2022-12-05T13:48:13.961Z,15.20
2022-12-05T13:53:23.615Z,15.20
2022-12-05T13:58:25.222Z,15.20
2022-12-05T14:03:32.762Z,15.20
2022-12-05T14:08:40.995Z,15.20
2022-12-05T14:13:43.500Z,15.20
2022-12-05T14:19:03.998Z,15.20
2022-12-05T14:24:05.876Z,15.20
2022-12-05T14:29:07.474Z,15.20
2022-12-05T14:34:12.007Z,15.20
2022-12-05T14:39:20.739Z,15.20
2022-12-05T14:44:22.551Z,15.20
2022-12-05T14:49:37.974Z,15.20
2022-12-05T14:54:40.944Z,15.20
2022-12-05T14:59:50.074Z,15.20
2022-12-05T15:04:58.316Z,15.20
2022-12-05T15:10:23.284Z,15.20
2022-12-05T15:15:41.898Z,15.20
2022-12-05T15:20:51.106Z,15.10
2022-12-05T15:25:57.260Z,15.10
2022-12-05T15:31:01.095Z,15.10
2022-12-05T15:36:03.334Z,15.00
2022-12-05T15:41:05.385Z,15.00
2022-12-05T15:46:20.427Z,15.10
2022-12-05T15:51:24.825Z,15.20
2022-12-05T15:56:33.669Z,15.30
2022-12-05T16:01:39.287Z,15.40
2022-12-05T16:06:43.052Z,15.50
2022-12-05T16:11:54.985Z,15.50
2022-12-05T16:17:00.354Z,15.60
2022-12-05T16:22:06.394Z,15.50
2022-12-05T16:27:20.954Z,15.50
2022-12-05T16:32:24.359Z,15.40
2022-12-05T16:37:29.021Z,15.40
2022-12-05T16:42:30.703Z,15.40
2022-12-05T16:47:41.617Z,15.60
2022-12-05T16:52:43.200Z,15.90
2022-12-05T16:57:45.028Z,16.20
2022-12-05T17:02:46.628Z,16.50
2022-12-05T17:07:48.526Z,16.70
2022-12-05T17:12:50.316Z,17.00
2022-12-05T17:17:51.965Z,17.20
2022-12-05T17:22:53.601Z,17.30
2022-12-05T17:27:55.325Z,17.20
2022-12-05T17:32:57.052Z,17.10
2022-12-05T17:37:58.849Z,17.00
2022-12-05T17:43:00.487Z,16.90
2022-12-05T17:48:02.122Z,16.90
2022-12-05T17:53:07.334Z,17.10
2022-12-05T17:58:09.790Z,17.20
2022-12-05T18:03:13.616Z,17.20
2022-12-05T18:08:16.620Z,17.20
2022-12-05T18:13:18.752Z,17.20
2022-12-05T18:18:20.563Z,17.10
2022-12-05T18:23:22.363Z,17.20
2022-12-05T18:28:23.873Z,17.30
2022-12-05T18:33:25.596Z,17.40
2022-12-05T18:43:29.423Z,17.30
2022-12-05T18:48:39.509Z,17.30
2022-12-05T18:53:51.362Z,17.20
2022-12-05T18:59:13.215Z,17.20
2022-12-05T19:04:16.002Z,17.30
2022-12-05T19:09:19.039Z,17.20
2022-12-05T19:14:20.979Z,17.20
2022-12-05T19:19:22.744Z,17.10
2022-12-05T19:24:24.567Z,16.90
2022-12-05T19:29:26.394Z,16.80
2022-12-05T19:34:28.240Z,16.70
2022-12-05T19:39:30.274Z,16.60
2022-12-05T19:44:32.040Z,16.50
2022-12-05T19:49:33.792Z,16.50
2022-12-05T19:54:35.993Z,16.50
2022-12-05T19:59:37.608Z,16.60
2022-12-05T20:04:39.264Z,16.80
2022-12-05T20:09:41.014Z,16.90
2022-12-05T20:14:42.814Z,17.00
2022-12-05T20:19:45.158Z,17.00
2022-12-05T20:24:47.200Z,17.00
2022-12-05T20:29:48.953Z,16.90
2022-12-05T20:34:50.538Z,16.80
2022-12-05T20:39:52.152Z,16.70
2022-12-05T20:44:53.896Z,16.70
2022-12-05T20:49:55.591Z,16.80
2022-12-05T20:54:57.330Z,16.80
2022-12-05T20:59:59.700Z,16.80
2022-12-05T21:05:01.546Z,16.80
2022-12-05T21:10:07.865Z,16.70
2022-12-05T21:15:10.285Z,16.70
2022-12-05T21:20:12.321Z,16.60
2022-12-05T21:25:14.018Z,16.60
2022-12-05T21:30:16.540Z,16.50
2022-12-05T21:35:18.622Z,16.50
2022-12-05T21:40:20.450Z,16.40
2022-12-05T21:45:22.588Z,16.30
2022-12-05T21:50:24.269Z,16.30
2022-12-05T21:55:25.979Z,16.30
2022-12-05T22:00:27.688Z,16.20
2022-12-05T22:05:29.325Z,16.20
2022-12-05T22:10:31.003Z,16.10
2022-12-05T22:15:32.643Z,16.00
2022-12-05T22:20:34.448Z,16.00
2022-12-05T22:25:36.370Z,16.00
2022-12-05T22:30:37.969Z,15.90
2022-12-05T22:35:39.605Z,15.80
2022-12-05T22:40:41.448Z,15.80
2022-12-05T22:45:43.173Z,15.80
2022-12-05T22:50:51.999Z,15.70
2022-12-05T22:55:53.800Z,15.70
2022-12-05T23:00:55.472Z,15.70
2022-12-05T23:05:57.241Z,15.60
2022-12-05T23:10:59.378Z,15.60
2022-12-05T23:16:11.607Z,15.60
2022-12-05T23:21:20.706Z,15.50
2022-12-05T23:26:24.216Z,15.50
2022-12-05T23:31:26.029Z,15.50
2022-12-05T23:36:27.764Z,15.60
2022-12-05T23:41:29.588Z,15.60
2022-12-05T23:46:31.436Z,15.60
2022-12-05T23:51:34.148Z,15.60
2022-12-05T23:56:36.233Z,15.60
